sensor_id;sensor_type;location;lat;lon;timestamp;temperature;humidity
1277;DHT22;631;51.024;13.826;2024-03-08T00:00:40;2.40;99.90
1277;DHT22;631;51.024;13.826;2024-03-08T00:03:08;2.30;99.90
1277;DHT22;631;51.024;13.826;2024-03-08T00:05:35;2.20;99.90
1277;DHT22;631;51.024;13.826;2024-03-08T00:08:01;2.10;99.90
1277;DHT22;631;51.024;13.826;2024-03-08T00:10:27;2.00;99.90
1277;DHT22;631;51.024;13.826;2024-03-08T00:12:54;2.00;1.00
1277;DHT22;631;51.024;13.826;2024-03-08T00:15:20;1.90;1.00
1277;DHT22;631;51.024;13.826;2024-03-08T00:17:46;1.80;1.00
1277;DHT22;631;51.024;13.826;2024-03-08T00:20:11;1.80;1.00
1277;DHT22;631;51.024;13.826;2024-03-08T00:22:38;1.70;99.90
1277;DHT22;631;51.024;13.826;2024-03-08T00:25:05;1.60;99.90
1277;DHT22;631;51.024;13.826;2024-03-08T00:27:31;1.60;1.00
1277;DHT22;631;51.024;13.826;2024-03-08T00:29:57;1.50;99.90
1277;DHT22;631;51.024;13.826;2024-03-08T00:32:23;1.50;99.90
1277;DHT22;631;51.024;13.826;2024-03-08T00:34:50;1.20;1.00
1277;DHT22;631;51.024;13.826;2024-03-08T00:39:45;1.20;1.00
1277;DHT22;631;51.024;13.826;2024-03-08T00:42:11;1.30;99.90
1277;DHT22;631;51.024;13.826;2024-03-08T00:44:37;1.30;99.90
1277;DHT22;631;51.024;13.826;2024-03-08T00:47:03;1.20;1.00
1277;DHT22;631;51.024;13.826;2024-03-08T00:49:30;1.20;1.00
1277;DHT22;631;51.024;13.826;2024-03-08T00:51:55;1.10;1.00
1277;DHT22;631;51.024;13.826;2024-03-08T00:54:21;1.10;1.00
1277;DHT22;631;51.024;13.826;2024-03-08T00:56:47;1.00;99.90
1277;DHT22;631;51.024;13.826;2024-03-08T00:59:12;1.00;1.00
1277;DHT22;631;51.024;13.826;2024-03-08T01:01:40;1.00;1.00
1277;DHT22;631;51.024;13.826;2024-03-08T01:04:05;1.00;1.00
1277;DHT22;631;51.024;13.826;2024-03-08T01:06:31;1.00;99.90
1277;DHT22;631;51.024;13.826;2024-03-08T01:08:57;0.90;1.00
1277;DHT22;631;51.024;13.826;2024-03-08T01:11:22;0.90;1.00
1277;DHT22;631;51.024;13.826;2024-03-08T01:13:48;0.80;1.00
1277;DHT22;631;51.024;13.826;2024-03-08T01:16:15;0.80;20.80
1277;DHT22;631;51.024;13.826;2024-03-08T01:18:42;0.70;99.90
1277;DHT22;631;51.024;13.826;2024-03-08T01:21:08;0.60;99.90
1277;DHT22;631;51.024;13.826;2024-03-08T01:23:33;0.60;1.00
1277;DHT22;631;51.024;13.826;2024-03-08T01:26:00;0.50;1.00
1277;DHT22;631;51.024;13.826;2024-03-08T01:28:27;0.60;1.00
1277;DHT22;631;51.024;13.826;2024-03-08T01:30:53;0.50;92.10
1277;DHT22;631;51.024;13.826;2024-03-08T01:33:26;0.50;99.90
1277;DHT22;631;51.024;13.826;2024-03-08T01:35:53;0.40;99.90
1277;DHT22;631;51.024;13.826;2024-03-08T01:38:21;0.40;99.90
1277;DHT22;631;51.024;13.826;2024-03-08T01:40:48;0.40;1.00
1277;DHT22;631;51.024;13.826;2024-03-08T01:43:39;0.40;1.00
1277;DHT22;631;51.024;13.826;2024-03-08T01:46:05;0.30;1.00
1277;DHT22;631;51.024;13.826;2024-03-08T01:48:32;0.30;1.00
1277;DHT22;631;51.024;13.826;2024-03-08T01:50:57;0.30;1.00
1277;DHT22;631;51.024;13.826;2024-03-08T01:53:30;0.20;1.00
1277;DHT22;631;51.024;13.826;2024-03-08T01:55:57;0.20;1.00
1277;DHT22;631;51.024;13.826;2024-03-08T01:58:23;0.20;1.00
1277;DHT22;631;51.024;13.826;2024-03-08T02:00:49;0.20;1.00
1277;DHT22;631;51.024;13.826;2024-03-08T02:03:16;0.10;1.00
1277;DHT22;631;51.024;13.826;2024-03-08T02:05:42;0.10;1.00
1277;DHT22;631;51.024;13.826;2024-03-08T02:08:09;0.10;1.00
1277;DHT22;631;51.024;13.826;2024-03-08T02:10:40;0.00;1.00
1277;DHT22;631;51.024;13.826;2024-03-08T02:13:07;0.00;1.00
1277;DHT22;631;51.024;13.826;2024-03-08T02:15:58;0.00;1.00
1277;DHT22;631;51.024;13.826;2024-03-08T02:18:28;-0.10;1.00
1277;DHT22;631;51.024;13.826;2024-03-08T02:20:58;-0.10;1.00
1277;DHT22;631;51.024;13.826;2024-03-08T02:23:24;-0.20;1.00
1277;DHT22;631;51.024;13.826;2024-03-08T02:25:51;-0.20;1.00
1277;DHT22;631;51.024;13.826;2024-03-08T02:28:17;-0.20;1.00
1277;DHT22;631;51.024;13.826;2024-03-08T02:30:49;-0.10;1.00
1277;DHT22;631;51.024;13.826;2024-03-08T02:33:17;-0.20;1.00
1277;DHT22;631;51.024;13.826;2024-03-08T02:35:44;-0.20;1.00
1277;DHT22;631;51.024;13.826;2024-03-08T02:38:13;-0.20;1.00
1277;DHT22;631;51.024;13.826;2024-03-08T02:40:45;-0.20;1.00
1277;DHT22;631;51.024;13.826;2024-03-08T02:43:11;-0.20;1.00
1277;DHT22;631;51.024;13.826;2024-03-08T02:45:37;-0.20;1.00
1277;DHT22;631;51.024;13.826;2024-03-08T02:48:04;-0.20;1.00
1277;DHT22;631;51.024;13.826;2024-03-08T02:50:32;-0.20;1.00
1277;DHT22;631;51.024;13.826;2024-03-08T02:52:57;-0.20;1.00
1277;DHT22;631;51.024;13.826;2024-03-08T02:55:23;-0.20;1.00
1277;DHT22;631;51.024;13.826;2024-03-08T02:57:52;-0.20;7.10
1277;DHT22;631;51.024;13.826;2024-03-08T03:00:18;-0.30;12.70
1277;DHT22;631;51.024;13.826;2024-03-08T03:02:45;-0.20;19.50
1277;DHT22;631;51.024;13.826;2024-03-08T03:05:11;-0.30;20.60
1277;DHT22;631;51.024;13.826;2024-03-08T03:07:37;-0.30;20.10
1277;DHT22;631;51.024;13.826;2024-03-08T03:10:03;-0.30;18.70
1277;DHT22;631;51.024;13.826;2024-03-08T03:12:30;-0.30;18.40
1277;DHT22;631;51.024;13.826;2024-03-08T03:14:56;-0.30;17.70
1277;DHT22;631;51.024;13.826;2024-03-08T03:17:25;-0.30;15.80
1277;DHT22;631;51.024;13.826;2024-03-08T03:19:52;-0.30;17.00
1277;DHT22;631;51.024;13.826;2024-03-08T03:22:18;-0.40;14.80
1277;DHT22;631;51.024;13.826;2024-03-08T03:24:45;-0.40;21.80
1277;DHT22;631;51.024;13.826;2024-03-08T03:27:12;-0.40;28.00
1277;DHT22;631;51.024;13.826;2024-03-08T03:29:43;-0.40;34.70
1277;DHT22;631;51.024;13.826;2024-03-08T03:32:13;-0.40;52.10
1277;DHT22;631;51.024;13.826;2024-03-08T03:34:39;-0.40;70.80
1277;DHT22;631;51.024;13.826;2024-03-08T03:37:05;-0.40;87.30
1277;DHT22;631;51.024;13.826;2024-03-08T03:39:32;-0.40;95.40
1277;DHT22;631;51.024;13.826;2024-03-08T03:41:59;-0.40;99.90
1277;DHT22;631;51.024;13.826;2024-03-08T03:44:27;-0.40;99.90
1277;DHT22;631;51.024;13.826;2024-03-08T03:46:53;-0.30;99.90
1277;DHT22;631;51.024;13.826;2024-03-08T03:49:19;-0.40;99.90
1277;DHT22;631;51.024;13.826;2024-03-08T03:51:45;-0.40;99.90
1277;DHT22;631;51.024;13.826;2024-03-08T03:54:11;-0.40;99.10
1277;DHT22;631;51.024;13.826;2024-03-08T03:56:37;-0.40;95.60
1277;DHT22;631;51.024;13.826;2024-03-08T03:59:02;-0.40;94.60
1277;DHT22;631;51.024;13.826;2024-03-08T04:01:28;-0.50;91.90
1277;DHT22;631;51.024;13.826;2024-03-08T04:03:54;-0.40;90.50
1277;DHT22;631;51.024;13.826;2024-03-08T04:06:20;-0.50;91.20
1277;DHT22;631;51.024;13.826;2024-03-08T04:08:47;-0.50;86.90
1277;DHT22;631;51.024;13.826;2024-03-08T04:11:13;-0.50;91.10
1277;DHT22;631;51.024;13.826;2024-03-08T04:13:41;-0.50;92.50
1277;DHT22;631;51.024;13.826;2024-03-08T04:16:07;-0.60;95.40
1277;DHT22;631;51.024;13.826;2024-03-08T04:18:34;-0.60;95.50
1277;DHT22;631;51.024;13.826;2024-03-08T04:21:02;-0.60;94.90
1277;DHT22;631;51.024;13.826;2024-03-08T04:23:28;-0.70;95.30
1277;DHT22;631;51.024;13.826;2024-03-08T04:25:54;-0.70;97.00
1277;DHT22;631;51.024;13.826;2024-03-08T04:28:19;-0.70;96.20
1277;DHT22;631;51.024;13.826;2024-03-08T04:30:45;-0.70;96.40
1277;DHT22;631;51.024;13.826;2024-03-08T04:33:11;-0.70;97.40
1277;DHT22;631;51.024;13.826;2024-03-08T04:35:37;-0.80;97.30
1277;DHT22;631;51.024;13.826;2024-03-08T04:38:03;-0.80;96.30
1277;DHT22;631;51.024;13.826;2024-03-08T04:40:30;-0.80;96.70
1277;DHT22;631;51.024;13.826;2024-03-08T04:42:58;-0.80;95.70
1277;DHT22;631;51.024;13.826;2024-03-08T04:45:24;-0.90;94.40
1277;DHT22;631;51.024;13.826;2024-03-08T04:47:51;-0.90;95.40
1277;DHT22;631;51.024;13.826;2024-03-08T04:50:18;-0.90;95.10
1277;DHT22;631;51.024;13.826;2024-03-08T04:52:44;-1.00;98.90
1277;DHT22;631;51.024;13.826;2024-03-08T04:55:09;-0.90;99.90
1277;DHT22;631;51.024;13.826;2024-03-08T04:57:35;-1.00;99.20
1277;DHT22;631;51.024;13.826;2024-03-08T05:00:03;-1.10;99.90
1277;DHT22;631;51.024;13.826;2024-03-08T05:02:33;-1.00;99.70
1277;DHT22;631;51.024;13.826;2024-03-08T05:04:59;-1.10;99.90
1277;DHT22;631;51.024;13.826;2024-03-08T05:07:24;-1.10;99.90
1277;DHT22;631;51.024;13.826;2024-03-08T05:09:51;-1.10;99.90
1277;DHT22;631;51.024;13.826;2024-03-08T05:12:18;-1.10;99.90
1277;DHT22;631;51.024;13.826;2024-03-08T05:14:47;-1.10;99.90
1277;DHT22;631;51.024;13.826;2024-03-08T05:17:15;-1.10;99.90
1277;DHT22;631;51.024;13.826;2024-03-08T05:19:42;-1.10;99.90
1277;DHT22;631;51.024;13.826;2024-03-08T05:22:07;-1.20;99.90
1277;DHT22;631;51.024;13.826;2024-03-08T05:24:33;-1.10;99.90
1277;DHT22;631;51.024;13.826;2024-03-08T05:26:59;-1.20;99.90
1277;DHT22;631;51.024;13.826;2024-03-08T05:29:26;-1.20;99.90
1277;DHT22;631;51.024;13.826;2024-03-08T05:31:52;-1.20;99.90
1277;DHT22;631;51.024;13.826;2024-03-08T05:34:18;-1.20;99.90
1277;DHT22;631;51.024;13.826;2024-03-08T05:36:45;-1.20;99.90
1277;DHT22;631;51.024;13.826;2024-03-08T05:39:15;-1.20;99.90
1277;DHT22;631;51.024;13.826;2024-03-08T05:41:41;-1.20;99.90
1277;DHT22;631;51.024;13.826;2024-03-08T05:44:07;-1.30;99.90
1277;DHT22;631;51.024;13.826;2024-03-08T05:46:33;-1.30;99.90
1277;DHT22;631;51.024;13.826;2024-03-08T05:48:59;-1.30;99.90
1277;DHT22;631;51.024;13.826;2024-03-08T05:51:25;-1.30;99.90
1277;DHT22;631;51.024;13.826;2024-03-08T05:53:54;-1.30;99.90
1277;DHT22;631;51.024;13.826;2024-03-08T05:56:21;-1.30;99.90
1277;DHT22;631;51.024;13.826;2024-03-08T05:58:48;-1.20;99.90
1277;DHT22;631;51.024;13.826;2024-03-08T06:01:15;-1.20;99.90
1277;DHT22;631;51.024;13.826;2024-03-08T06:03:41;-1.20;99.90
1277;DHT22;631;51.024;13.826;2024-03-08T06:06:12;-1.10;99.90
1277;DHT22;631;51.024;13.826;2024-03-08T06:08:38;-1.10;99.90
1277;DHT22;631;51.024;13.826;2024-03-08T06:11:04;-1.00;99.90
1277;DHT22;631;51.024;13.826;2024-03-08T06:13:31;-0.90;99.90
1277;DHT22;631;51.024;13.826;2024-03-08T06:15:57;-0.90;99.90
1277;DHT22;631;51.024;13.826;2024-03-08T06:18:22;-0.80;99.90
1277;DHT22;631;51.024;13.826;2024-03-08T06:20:48;-0.70;99.90
1277;DHT22;631;51.024;13.826;2024-03-08T06:23:14;-0.70;99.90
1277;DHT22;631;51.024;13.826;2024-03-08T06:25:45;-0.70;99.90
1277;DHT22;631;51.024;13.826;2024-03-08T06:28:11;-0.70;99.90
1277;DHT22;631;51.024;13.826;2024-03-08T06:30:37;-0.60;99.90
1277;DHT22;631;51.024;13.826;2024-03-08T06:33:02;-0.60;99.90
1277;DHT22;631;51.024;13.826;2024-03-08T06:35:28;-0.50;99.90
1277;DHT22;631;51.024;13.826;2024-03-08T06:37:54;-0.50;99.90
1277;DHT22;631;51.024;13.826;2024-03-08T06:40:19;-0.50;99.90
1277;DHT22;631;51.024;13.826;2024-03-08T06:42:45;-0.40;99.90
1277;DHT22;631;51.024;13.826;2024-03-08T06:45:11;-0.40;99.90
1277;DHT22;631;51.024;13.826;2024-03-08T06:47:38;-0.30;99.90
1277;DHT22;631;51.024;13.826;2024-03-08T06:50:04;-0.30;99.90
1277;DHT22;631;51.024;13.826;2024-03-08T06:52:29;-0.20;99.90
1277;DHT22;631;51.024;13.826;2024-03-08T06:54:55;-0.20;99.90
1277;DHT22;631;51.024;13.826;2024-03-08T06:57:22;-0.10;99.90
1277;DHT22;631;51.024;13.826;2024-03-08T06:59:49;-0.10;99.90
1277;DHT22;631;51.024;13.826;2024-03-08T07:02:14;0.00;99.90
1277;DHT22;631;51.024;13.826;2024-03-08T07:04:40;0.10;99.90
1277;DHT22;631;51.024;13.826;2024-03-08T07:07:06;0.20;99.90
1277;DHT22;631;51.024;13.826;2024-03-08T07:09:37;0.20;99.90
1277;DHT22;631;51.024;13.826;2024-03-08T07:12:03;0.30;99.90
1277;DHT22;631;51.024;13.826;2024-03-08T07:14:29;0.40;99.90
1277;DHT22;631;51.024;13.826;2024-03-08T07:16:56;0.50;99.90
1277;DHT22;631;51.024;13.826;2024-03-08T07:19:22;0.60;99.90
1277;DHT22;631;51.024;13.826;2024-03-08T07:21:48;0.70;99.90
1277;DHT22;631;51.024;13.826;2024-03-08T07:24:13;0.70;99.90
1277;DHT22;631;51.024;13.826;2024-03-08T07:26:59;0.80;99.90
1277;DHT22;631;51.024;13.826;2024-03-08T07:29:25;0.90;98.10
1277;DHT22;631;51.024;13.826;2024-03-08T07:31:51;1.00;95.90
1277;DHT22;631;51.024;13.826;2024-03-08T07:34:21;1.10;87.90
1277;DHT22;631;51.024;13.826;2024-03-08T07:36:47;1.20;57.40
1277;DHT22;631;51.024;13.826;2024-03-08T07:39:12;1.30;36.10
1277;DHT22;631;51.024;13.826;2024-03-08T07:41:39;1.40;18.80
1277;DHT22;631;51.024;13.826;2024-03-08T07:44:07;1.40;5.50
1277;DHT22;631;51.024;13.826;2024-03-08T07:46:33;1.60;2.10
1277;DHT22;631;51.024;13.826;2024-03-08T07:49:02;1.80;1.00
1277;DHT22;631;51.024;13.826;2024-03-08T07:51:28;1.90;1.00
1277;DHT22;631;51.024;13.826;2024-03-08T07:53:54;2.20;1.00
1277;DHT22;631;51.024;13.826;2024-03-08T07:56:20;2.40;1.00
1277;DHT22;631;51.024;13.826;2024-03-08T07:58:47;2.60;1.00
1277;DHT22;631;51.024;13.826;2024-03-08T08:01:19;2.70;1.00
1277;DHT22;631;51.024;13.826;2024-03-08T08:03:46;2.90;1.00
1277;DHT22;631;51.024;13.826;2024-03-08T08:06:15;3.10;1.00
1277;DHT22;631;51.024;13.826;2024-03-08T08:08:44;3.30;1.00
1277;DHT22;631;51.024;13.826;2024-03-08T08:11:10;3.50;1.00
1277;DHT22;631;51.024;13.826;2024-03-08T08:13:37;3.70;1.00
1277;DHT22;631;51.024;13.826;2024-03-08T08:16:03;3.90;99.90
1277;DHT22;631;51.024;13.826;2024-03-08T08:18:31;4.10;99.90
1277;DHT22;631;51.024;13.826;2024-03-08T08:20:58;4.40;1.00
1277;DHT22;631;51.024;13.826;2024-03-08T08:23:25;4.70;1.00
1277;DHT22;631;51.024;13.826;2024-03-08T08:25:51;5.00;99.90
1277;DHT22;631;51.024;13.826;2024-03-08T08:28:17;5.30;99.90
1277;DHT22;631;51.024;13.826;2024-03-08T08:30:44;5.80;90.10
1277;DHT22;631;51.024;13.826;2024-03-08T08:33:10;6.20;1.00
1277;DHT22;631;51.024;13.826;2024-03-08T08:35:36;6.70;1.00
1277;DHT22;631;51.024;13.826;2024-03-08T08:38:06;7.30;1.00
1277;DHT22;631;51.024;13.826;2024-03-08T08:40:33;7.70;1.00
1277;DHT22;631;51.024;13.826;2024-03-08T08:42:59;8.30;1.00
1277;DHT22;631;51.024;13.826;2024-03-08T08:45:25;8.80;1.00
1277;DHT22;631;51.024;13.826;2024-03-08T08:47:51;9.10;1.00
1277;DHT22;631;51.024;13.826;2024-03-08T08:50:17;9.40;99.90
1277;DHT22;631;51.024;13.826;2024-03-08T08:52:49;9.80;99.90
1277;DHT22;631;51.024;13.826;2024-03-08T08:55:15;10.30;99.90
1277;DHT22;631;51.024;13.826;2024-03-08T08:57:41;10.60;99.90
1277;DHT22;631;51.024;13.826;2024-03-08T09:00:07;10.80;99.90
1277;DHT22;631;51.024;13.826;2024-03-08T09:02:35;11.10;99.90
1277;DHT22;631;51.024;13.826;2024-03-08T09:05:03;11.30;99.90
1277;DHT22;631;51.024;13.826;2024-03-08T09:07:29;11.60;99.90
1277;DHT22;631;51.024;13.826;2024-03-08T09:09:55;11.90;99.90
1277;DHT22;631;51.024;13.826;2024-03-08T09:12:23;12.30;99.90
1277;DHT22;631;51.024;13.826;2024-03-08T09:14:49;12.60;99.90
1277;DHT22;631;51.024;13.826;2024-03-08T09:17:15;12.50;99.90
1277;DHT22;631;51.024;13.826;2024-03-08T09:19:46;12.80;99.90
1277;DHT22;631;51.024;13.826;2024-03-08T09:22:13;13.20;99.90
1277;DHT22;631;51.024;13.826;2024-03-08T09:24:39;13.30;99.90
1277;DHT22;631;51.024;13.826;2024-03-08T09:27:05;13.70;99.90
1277;DHT22;631;51.024;13.826;2024-03-08T09:29:30;14.10;99.90
1277;DHT22;631;51.024;13.826;2024-03-08T09:31:56;14.20;99.90
1277;DHT22;631;51.024;13.826;2024-03-08T09:34:22;14.20;99.90
1277;DHT22;631;51.024;13.826;2024-03-08T09:36:47;14.40;99.90
1277;DHT22;631;51.024;13.826;2024-03-08T09:39:13;14.60;99.90
1277;DHT22;631;51.024;13.826;2024-03-08T09:41:43;14.70;99.90
1277;DHT22;631;51.024;13.826;2024-03-08T09:44:09;14.80;99.90
1277;DHT22;631;51.024;13.826;2024-03-08T09:46:35;15.10;99.90
1277;DHT22;631;51.024;13.826;2024-03-08T09:49:01;15.50;99.90
1277;DHT22;631;51.024;13.826;2024-03-08T09:51:33;15.60;99.90
1277;DHT22;631;51.024;13.826;2024-03-08T09:53:58;15.60;99.90
1277;DHT22;631;51.024;13.826;2024-03-08T09:56:25;16.00;99.90
1277;DHT22;631;51.024;13.826;2024-03-08T09:58:53;16.00;99.90
1277;DHT22;631;51.024;13.826;2024-03-08T10:01:37;16.20;99.90
1277;DHT22;631;51.024;13.826;2024-03-08T10:04:04;16.30;99.90
1277;DHT22;631;51.024;13.826;2024-03-08T10:06:30;16.50;99.90
1277;DHT22;631;51.024;13.826;2024-03-08T10:08:57;16.40;99.90
1277;DHT22;631;51.024;13.826;2024-03-08T10:11:24;16.50;99.90
1277;DHT22;631;51.024;13.826;2024-03-08T10:13:50;17.00;99.90
1277;DHT22;631;51.024;13.826;2024-03-08T10:16:16;17.10;99.90
1277;DHT22;631;51.024;13.826;2024-03-08T10:18:42;17.20;99.90
1277;DHT22;631;51.024;13.826;2024-03-08T10:21:09;17.10;99.90
1277;DHT22;631;51.024;13.826;2024-03-08T10:23:38;17.20;99.90
1277;DHT22;631;51.024;13.826;2024-03-08T10:26:15;17.30;99.90
1277;DHT22;631;51.024;13.826;2024-03-08T10:28:42;17.50;99.90
1277;DHT22;631;51.024;13.826;2024-03-08T10:31:09;17.90;99.90
1277;DHT22;631;51.024;13.826;2024-03-08T10:33:35;18.30;99.90
1277;DHT22;631;51.024;13.826;2024-03-08T10:36:03;18.50;99.90
1277;DHT22;631;51.024;13.826;2024-03-08T10:38:31;18.80;99.90
1277;DHT22;631;51.024;13.826;2024-03-08T10:41:02;18.70;99.90
1277;DHT22;631;51.024;13.826;2024-03-08T10:43:32;18.60;99.90
1277;DHT22;631;51.024;13.826;2024-03-08T10:49:08;19.00;99.90
1277;DHT22;631;51.024;13.826;2024-03-08T10:51:38;19.30;99.90
1277;DHT22;631;51.024;13.826;2024-03-08T10:54:07;19.40;99.90
1277;DHT22;631;51.024;13.826;2024-03-08T10:56:34;19.70;99.90
1277;DHT22;631;51.024;13.826;2024-03-08T10:59:01;20.00;99.90
1277;DHT22;631;51.024;13.826;2024-03-08T11:01:26;20.40;99.90
1277;DHT22;631;51.024;13.826;2024-03-08T11:03:52;20.40;99.90
1277;DHT22;631;51.024;13.826;2024-03-08T11:06:42;20.20;99.90
1277;DHT22;631;51.024;13.826;2024-03-08T11:09:30;20.00;99.90
1277;DHT22;631;51.024;13.826;2024-03-08T11:12:21;20.20;99.90
1277;DHT22;631;51.024;13.826;2024-03-08T11:14:54;20.30;99.90
1277;DHT22;631;51.024;13.826;2024-03-08T11:19:59;20.90;99.90
1277;DHT22;631;51.024;13.826;2024-03-08T11:22:32;20.60;99.90
1277;DHT22;631;51.024;13.826;2024-03-08T11:24:59;20.80;99.90
1277;DHT22;631;51.024;13.826;2024-03-08T11:27:30;20.70;99.90
1277;DHT22;631;51.024;13.826;2024-03-08T11:30:10;21.10;99.90
1277;DHT22;631;51.024;13.826;2024-03-08T11:32:48;21.10;99.90
1277;DHT22;631;51.024;13.826;2024-03-08T11:35:22;20.80;99.90
1277;DHT22;631;51.024;13.826;2024-03-08T11:37:48;20.70;99.90
1277;DHT22;631;51.024;13.826;2024-03-08T11:40:15;21.00;99.90
1277;DHT22;631;51.024;13.826;2024-03-08T11:42:48;21.10;99.90
1277;DHT22;631;51.024;13.826;2024-03-08T11:45:18;21.10;99.90
1277;DHT22;631;51.024;13.826;2024-03-08T11:47:46;21.30;99.90
1277;DHT22;631;51.024;13.826;2024-03-08T11:50:15;21.20;99.90
1277;DHT22;631;51.024;13.826;2024-03-08T11:52:42;21.20;99.90
1277;DHT22;631;51.024;13.826;2024-03-08T11:55:08;21.30;99.90
1277;DHT22;631;51.024;13.826;2024-03-08T11:57:34;21.40;99.90
1277;DHT22;631;51.024;13.826;2024-03-08T12:00:01;21.30;99.90
1277;DHT22;631;51.024;13.826;2024-03-08T12:02:33;21.30;99.90
1277;DHT22;631;51.024;13.826;2024-03-08T12:05:01;21.30;99.90
1277;DHT22;631;51.024;13.826;2024-03-08T12:07:29;21.50;99.90
1277;DHT22;631;51.024;13.826;2024-03-08T12:10:17;21.70;99.90
1277;DHT22;631;51.024;13.826;2024-03-08T12:12:46;21.80;99.90
1277;DHT22;631;51.024;13.826;2024-03-08T12:15:13;21.80;99.90
1277;DHT22;631;51.024;13.826;2024-03-08T12:17:40;22.40;99.90
1277;DHT22;631;51.024;13.826;2024-03-08T12:20:21;22.40;99.90
1277;DHT22;631;51.024;13.826;2024-03-08T12:22:48;21.90;99.90
1277;DHT22;631;51.024;13.826;2024-03-08T12:25:15;22.10;99.90
1277;DHT22;631;51.024;13.826;2024-03-08T12:27:42;22.20;99.90
1277;DHT22;631;51.024;13.826;2024-03-08T12:30:22;22.20;99.90
1277;DHT22;631;51.024;13.826;2024-03-08T12:32:53;22.30;99.90
1277;DHT22;631;51.024;13.826;2024-03-08T12:35:21;22.20;99.90
1277;DHT22;631;51.024;13.826;2024-03-08T12:37:48;22.40;99.90
1277;DHT22;631;51.024;13.826;2024-03-08T12:40:14;21.90;99.90
1277;DHT22;631;51.024;13.826;2024-03-08T12:42:45;22.00;99.90
1277;DHT22;631;51.024;13.826;2024-03-08T12:45:13;22.30;99.90
1277;DHT22;631;51.024;13.826;2024-03-08T12:47:39;22.30;99.90
1277;DHT22;631;51.024;13.826;2024-03-08T12:50:10;21.80;99.90
1277;DHT22;631;51.024;13.826;2024-03-08T12:52:36;21.80;99.90
1277;DHT22;631;51.024;13.826;2024-03-08T12:55:02;22.10;99.90
1277;DHT22;631;51.024;13.826;2024-03-08T12:57:28;22.30;99.90
1277;DHT22;631;51.024;13.826;2024-03-08T12:59:54;22.40;99.90
1277;DHT22;631;51.024;13.826;2024-03-08T13:02:19;22.20;99.90
1277;DHT22;631;51.024;13.826;2024-03-08T13:04:46;22.20;99.90
1277;DHT22;631;51.024;13.826;2024-03-08T13:07:21;22.00;99.90
1277;DHT22;631;51.024;13.826;2024-03-08T13:09:47;22.10;99.90
1277;DHT22;631;51.024;13.826;2024-03-08T13:12:12;22.10;99.90
1277;DHT22;631;51.024;13.826;2024-03-08T13:14:40;22.10;99.90
1277;DHT22;631;51.024;13.826;2024-03-08T13:17:06;22.00;99.90
1277;DHT22;631;51.024;13.826;2024-03-08T13:19:36;21.90;99.90
1277;DHT22;631;51.024;13.826;2024-03-08T13:22:03;22.10;99.90
1277;DHT22;631;51.024;13.826;2024-03-08T13:24:32;22.00;99.90
1277;DHT22;631;51.024;13.826;2024-03-08T13:26:59;22.00;99.90
1277;DHT22;631;51.024;13.826;2024-03-08T13:29:25;21.50;99.90
1277;DHT22;631;51.024;13.826;2024-03-08T13:31:51;21.40;99.90
1277;DHT22;631;51.024;13.826;2024-03-08T13:34:18;21.10;99.90
1277;DHT22;631;51.024;13.826;2024-03-08T13:36:44;20.70;99.90
1277;DHT22;631;51.024;13.826;2024-03-08T13:39:12;20.80;99.90
1277;DHT22;631;51.024;13.826;2024-03-08T13:41:46;21.10;99.90
1277;DHT22;631;51.024;13.826;2024-03-08T13:44:12;21.20;99.90
1277;DHT22;631;51.024;13.826;2024-03-08T13:46:37;21.50;99.90
1277;DHT22;631;51.024;13.826;2024-03-08T13:49:05;21.40;99.90
1277;DHT22;631;51.024;13.826;2024-03-08T13:51:31;21.40;99.90
1277;DHT22;631;51.024;13.826;2024-03-08T13:53:58;21.30;99.90
1277;DHT22;631;51.024;13.826;2024-03-08T13:56:23;21.40;99.90
1277;DHT22;631;51.024;13.826;2024-03-08T13:58:49;21.10;99.90
1277;DHT22;631;51.024;13.826;2024-03-08T14:01:14;20.90;99.90
1277;DHT22;631;51.024;13.826;2024-03-08T14:03:40;21.00;99.90
1277;DHT22;631;51.024;13.826;2024-03-08T14:06:07;21.00;99.90
1277;DHT22;631;51.024;13.826;2024-03-08T14:08:32;21.00;99.90
1277;DHT22;631;51.024;13.826;2024-03-08T14:10:58;20.90;99.90
1277;DHT22;631;51.024;13.826;2024-03-08T14:13:24;20.80;99.90
1277;DHT22;631;51.024;13.826;2024-03-08T14:15:50;20.80;99.90
1277;DHT22;631;51.024;13.826;2024-03-08T14:18:17;20.40;99.90
1277;DHT22;631;51.024;13.826;2024-03-08T14:20:42;20.00;99.90
1277;DHT22;631;51.024;13.826;2024-03-08T14:23:09;19.80;99.90
1277;DHT22;631;51.024;13.826;2024-03-08T14:25:35;19.80;99.90
1277;DHT22;631;51.024;13.826;2024-03-08T14:28:01;19.70;99.90
1277;DHT22;631;51.024;13.826;2024-03-08T14:30:29;19.60;99.90
1277;DHT22;631;51.024;13.826;2024-03-08T14:33:00;19.70;99.90
1277;DHT22;631;51.024;13.826;2024-03-08T14:35:26;19.70;99.90
1277;DHT22;631;51.024;13.826;2024-03-08T14:37:52;19.70;99.90
1277;DHT22;631;51.024;13.826;2024-03-08T14:40:18;19.80;99.90
1277;DHT22;631;51.024;13.826;2024-03-08T14:42:48;19.60;99.90
1277;DHT22;631;51.024;13.826;2024-03-08T14:45:18;19.50;99.90
1277;DHT22;631;51.024;13.826;2024-03-08T14:47:47;19.50;99.90
1277;DHT22;631;51.024;13.826;2024-03-08T14:50:19;19.20;99.90
1277;DHT22;631;51.024;13.826;2024-03-08T14:52:45;19.10;99.90
1277;DHT22;631;51.024;13.826;2024-03-08T14:55:14;19.20;99.90
1277;DHT22;631;51.024;13.826;2024-03-08T14:57:44;19.10;99.90
1277;DHT22;631;51.024;13.826;2024-03-08T15:00:13;18.80;99.90
1277;DHT22;631;51.024;13.826;2024-03-08T15:02:43;18.60;99.90
1277;DHT22;631;51.024;13.826;2024-03-08T15:05:09;18.50;99.90
1277;DHT22;631;51.024;13.826;2024-03-08T15:07:40;18.40;99.90
1277;DHT22;631;51.024;13.826;2024-03-08T15:10:09;18.40;99.90
1277;DHT22;631;51.024;13.826;2024-03-08T15:12:41;18.10;99.90
1277;DHT22;631;51.024;13.826;2024-03-08T15:15:12;17.80;99.90
1277;DHT22;631;51.024;13.826;2024-03-08T15:17:39;17.40;99.90
1277;DHT22;631;51.024;13.826;2024-03-08T15:20:06;17.40;99.90
1277;DHT22;631;51.024;13.826;2024-03-08T15:22:41;17.20;99.90
1277;DHT22;631;51.024;13.826;2024-03-08T15:25:07;17.10;99.90
1277;DHT22;631;51.024;13.826;2024-03-08T15:27:33;17.00;99.90
1277;DHT22;631;51.024;13.826;2024-03-08T15:29:58;16.70;99.90
1277;DHT22;631;51.024;13.826;2024-03-08T15:32:24;16.50;99.90
1277;DHT22;631;51.024;13.826;2024-03-08T15:34:49;16.30;99.90
1277;DHT22;631;51.024;13.826;2024-03-08T15:37:19;16.00;99.90
1277;DHT22;631;51.024;13.826;2024-03-08T15:39:44;15.80;99.90
1277;DHT22;631;51.024;13.826;2024-03-08T15:42:11;15.50;99.90
1277;DHT22;631;51.024;13.826;2024-03-08T15:44:37;15.30;99.90
1277;DHT22;631;51.024;13.826;2024-03-08T15:47:04;14.90;99.90
1277;DHT22;631;51.024;13.826;2024-03-08T15:49:32;14.60;99.90
1277;DHT22;631;51.024;13.826;2024-03-08T15:51:58;14.40;99.90
1277;DHT22;631;51.024;13.826;2024-03-08T15:54:24;14.20;99.90
1277;DHT22;631;51.024;13.826;2024-03-08T15:56:50;14.00;99.90
1277;DHT22;631;51.024;13.826;2024-03-08T15:59:16;13.70;99.90
1277;DHT22;631;51.024;13.826;2024-03-08T16:01:42;13.40;99.90
1277;DHT22;631;51.024;13.826;2024-03-08T16:04:14;13.10;99.90
1277;DHT22;631;51.024;13.826;2024-03-08T16:06:39;12.90;99.90
1277;DHT22;631;51.024;13.826;2024-03-08T16:09:06;12.70;99.90
1277;DHT22;631;51.024;13.826;2024-03-08T16:11:38;12.50;99.90
1277;DHT22;631;51.024;13.826;2024-03-08T16:14:04;12.30;99.90
1277;DHT22;631;51.024;13.826;2024-03-08T16:16:30;12.20;99.90
1277;DHT22;631;51.024;13.826;2024-03-08T16:18:57;12.00;99.90